createdAt,value
2022-08-17T00:01:00.211Z,99.90
2022-08-17T00:03:45.254Z,99.90
2022-08-17T00:06:27.473Z,99.90
2022-08-17T00:09:02.133Z,99.90
2022-08-17T00:11:37.787Z,99.90
2022-08-17T00:14:16.353Z,99.90
2022-08-17T00:16:56.546Z,99.90
2022-08-17T00:19:29.562Z,99.90
2022-08-17T00:22:31.601Z,99.90
2022-08-17T00:24:54.864Z,99.90
2022-08-17T00:27:26.921Z,99.90
2022-08-17T00:29:59.043Z,99.90
2022-08-17T00:33:12.121Z,99.90
2022-08-17T00:35:32.912Z,99.90
2022-08-17T00:38:09.600Z,99.90
2022-08-17T00:40:45.405Z,99.90
2022-08-17T00:43:31.819Z,99.90
2022-08-17T00:46:10.582Z,99.90
2022-08-17T00:48:44.085Z,99.90
2022-08-17T00:51:39.176Z,99.90
2022-08-17T00:54:31.178Z,99.90
2022-08-17T00:57:08.629Z,99.90
2022-08-17T00:59:47.153Z,99.90
2022-08-17T01:02:42.800Z,99.90
2022-08-17T01:05:19.000Z,99.90
2022-08-17T01:07:51.925Z,99.90
2022-08-17T01:10:59.690Z,99.90
2022-08-17T01:13:28.645Z,99.90
2022-08-17T01:16:16.012Z,99.90
2022-08-17T01:18:50.548Z,99.90
2022-08-17T01:21:40.888Z,99.90
2022-08-17T01:24:12.856Z,99.90
2022-08-17T01:26:45.710Z,99.90
2022-08-17T01:29:20.259Z,99.90
2022-08-17T01:31:58.305Z,99.90
2022-08-17T01:34:36.865Z,99.90
2022-08-17T01:37:16.461Z,99.90
2022-08-17T01:39:57.593Z,99.90
2022-08-17T01:42:46.774Z,99.90
2022-08-17T01:45:23.494Z,99.90
2022-08-17T01:47:56.638Z,99.90
2022-08-17T01:50:32.232Z,99.90
2022-08-17T01:53:21.121Z,99.90
2022-08-17T01:55:57.894Z,99.90
2022-08-17T01:58:29.820Z,99.90
2022-08-17T02:01:03.207Z,99.90
2022-08-17T02:03:37.027Z,99.90
2022-08-17T02:06:27.130Z,99.90
2022-08-17T02:09:02.824Z,99.90
2022-08-17T02:11:38.406Z,99.90
2022-08-17T02:14:11.600Z,99.90
2022-08-17T02:16:43.525Z,99.90
2022-08-17T02:19:16.315Z,99.90
2022-08-17T02:21:50.264Z,99.90
2022-08-17T02:25:01.188Z,99.90
2022-08-17T02:27:19.649Z,99.90
2022-08-17T02:29:51.537Z,99.90
2022-08-17T02:32:28.439Z,99.90
2022-08-17T02:35:01.580Z,99.90
2022-08-17T02:37:33.782Z,99.90
2022-08-17T02:40:07.032Z,99.90
2022-08-17T02:42:41.752Z,99.90
2022-08-17T02:45:17.369Z,99.90
2022-08-17T02:47:50.391Z,99.90
2022-08-17T02:50:24.219Z,99.90
2022-08-17T02:53:01.899Z,99.90
2022-08-17T02:55:40.168Z,99.90
2022-08-17T02:58:13.519Z,99.90
2022-08-17T03:00:48.202Z,99.90
2022-08-17T03:03:20.108Z,99.90
2022-08-17T03:05:53.314Z,99.90
2022-08-17T03:08:25.570Z,99.90
2022-08-17T03:10:57.702Z,99.90
2022-08-17T03:13:30.789Z,99.90
2022-08-17T03:16:03.115Z,99.90
2022-08-17T03:18:35.298Z,99.90
2022-08-17T03:21:08.552Z,99.90
2022-08-17T03:23:42.164Z,99.90
2022-08-17T03:26:16.311Z,99.90
2022-08-17T03:28:49.311Z,99.90
2022-08-17T03:31:21.793Z,99.90
2022-08-17T03:33:53.659Z,99.90
2022-08-17T03:36:25.544Z,99.90
2022-08-17T03:38:57.423Z,99.90
2022-08-17T03:41:29.254Z,99.90
2022-08-17T03:44:01.372Z,99.90
2022-08-17T03:46:52.153Z,99.90
2022-08-17T03:49:42.831Z,99.90
2022-08-17T03:52:33.241Z,99.90
2022-08-17T03:55:36.182Z,99.90
2022-08-17T03:58:08.345Z,99.90
2022-08-17T04:00:40.521Z,99.90
2022-08-17T04:03:14.117Z,99.90
2022-08-17T04:05:46.004Z,99.90
2022-08-17T04:08:18.181Z,99.90
2022-08-17T04:10:50.123Z,99.90
2022-08-17T04:13:24.196Z,99.90
2022-08-17T04:15:59.218Z,99.90
2022-08-17T04:18:31.302Z,99.90
2022-08-17T04:21:08.323Z,99.90
2022-08-17T04:23:40.235Z,99.90
2022-08-17T04:26:12.827Z,99.90
2022-08-17T04:29:04.863Z,99.90
2022-08-17T04:31:36.758Z,99.90
2022-08-17T04:34:09.292Z,99.90
2022-08-17T04:36:41.218Z,99.90
2022-08-17T04:39:24.979Z,99.90
2022-08-17T04:42:17.181Z,99.90
2022-08-17T04:44:49.093Z,99.90
2022-08-17T04:47:21.429Z,99.90
2022-08-17T04:49:53.557Z,99.90
2022-08-17T04:52:32.171Z,99.90
2022-08-17T04:55:15.778Z,99.90
2022-08-17T04:57:47.746Z,99.90
2022-08-17T05:00:19.916Z,99.90
2022-08-17T05:02:54.176Z,99.90
2022-08-17T05:05:30.451Z,99.90
2022-08-17T05:08:05.484Z,99.90
2022-08-17T05:10:45.327Z,99.90
2022-08-17T05:13:21.079Z,99.90
2022-08-17T05:16:01.375Z,99.90
2022-08-17T05:18:33.329Z,99.90
2022-08-17T05:21:06.687Z,99.90
2022-08-17T05:23:42.355Z,99.90
2022-08-17T05:26:19.903Z,99.90
2022-08-17T05:29:00.551Z,99.90
2022-08-17T05:31:34.732Z,99.90
2022-08-17T05:34:07.412Z,99.90
2022-08-17T05:36:44.010Z,99.90
2022-08-17T05:39:17.445Z,99.90
2022-08-17T05:41:49.366Z,99.90
2022-08-17T05:44:21.354Z,99.90
2022-08-17T05:46:54.322Z,99.90
2022-08-17T05:49:28.653Z,99.90
2022-08-17T05:52:09.326Z,99.90
2022-08-17T05:54:50.206Z,99.90
2022-08-17T05:57:43.540Z,99.90
2022-08-17T06:01:00.929Z,99.90
2022-08-17T06:03:49.032Z,99.90
2022-08-17T06:06:50.440Z,99.90
2022-08-17T06:09:37.261Z,99.90
2022-08-17T06:12:27.958Z,99.90
2022-08-17T06:15:07.382Z,99.90
2022-08-17T06:17:40.026Z,99.90
2022-08-17T06:20:15.718Z,99.90
2022-08-17T06:22:52.431Z,99.90
2022-08-17T06:25:33.461Z,99.90
2022-08-17T06:28:13.816Z,99.90
2022-08-17T06:31:00.104Z,99.90
2022-08-17T06:33:36.342Z,99.90
2022-08-17T06:36:19.926Z,99.90
2022-08-17T06:39:07.613Z,99.90
2022-08-17T06:41:49.609Z,99.90
2022-08-17T06:44:43.284Z,99.90
2022-08-17T06:47:39.992Z,99.90
2022-08-17T06:50:27.178Z,99.90
2022-08-17T06:53:04.194Z,99.90
2022-08-17T06:56:08.714Z,99.90
2022-08-17T06:58:43.394Z,99.90
2022-08-17T07:01:24.939Z,99.90
2022-08-17T07:04:11.459Z,99.90
2022-08-17T07:06:52.493Z,99.90
2022-08-17T07:09:31.370Z,99.90
2022-08-17T07:12:15.188Z,99.90
2022-08-17T07:15:05.542Z,99.90
2022-08-17T07:17:47.996Z,99.90
2022-08-17T07:20:22.388Z,99.90
2022-08-17T07:23:21.908Z,99.90
2022-08-17T07:26:03.296Z,99.90
2022-08-17T07:28:36.001Z,99.90
2022-08-17T07:31:09.066Z,99.90
2022-08-17T07:34:03.351Z,99.90
2022-08-17T07:36:35.448Z,99.90
2022-08-17T07:39:08.138Z,99.90
2022-08-17T07:41:53.409Z,99.90
2022-08-17T07:44:30.957Z,99.90
2022-08-17T07:47:21.669Z,99.30
2022-08-17T07:49:53.657Z,99.10
2022-08-17T07:52:51.425Z,98.60
2022-08-17T07:55:31.082Z,97.70
2022-08-17T07:58:03.662Z,96.80
2022-08-17T08:00:37.168Z,96.70
2022-08-17T08:03:29.359Z,96.70
2022-08-17T08:06:02.433Z,96.30
2022-08-17T08:08:42.299Z,96.20
2022-08-17T08:11:27.936Z,95.60
2022-08-17T08:14:29.533Z,95.80
2022-08-17T08:17:09.318Z,96.10
2022-08-17T08:19:41.433Z,95.30
2022-08-17T08:22:35.401Z,94.80
2022-08-17T08:25:59.542Z,94.30
2022-08-17T08:29:09.012Z,93.80
2022-08-17T08:32:03.864Z,93.80
2022-08-17T08:35:01.183Z,94.40
2022-08-17T08:37:42.913Z,94.60
2022-08-17T08:40:34.133Z,94.80
2022-08-17T08:43:22.367Z,95.40
2022-08-17T08:45:57.972Z,96.00
2022-08-17T08:48:56.533Z,95.60
2022-08-17T08:51:33.195Z,94.50
2022-08-17T08:54:27.064Z,93.00
2022-08-17T08:57:25.422Z,93.50
2022-08-17T09:00:13.048Z,93.20
2022-08-17T09:03:12.311Z,93.40
2022-08-17T09:06:03.700Z,93.60
2022-08-17T09:09:03.627Z,93.50
2022-08-17T09:12:01.838Z,93.50
2022-08-17T09:14:47.326Z,93.90
2022-08-17T09:17:24.244Z,93.00
2022-08-17T09:20:02.179Z,92.90
2022-08-17T09:22:43.060Z,92.60
2022-08-17T09:25:21.782Z,91.70
2022-08-17T09:28:06.559Z,91.10
2022-08-17T09:30:47.036Z,90.20
2022-08-17T09:33:26.202Z,91.10
2022-08-17T09:36:28.110Z,90.60
2022-08-17T09:39:30.797Z,90.70
2022-08-17T09:42:17.643Z,90.80
2022-08-17T09:44:54.024Z,90.30
2022-08-17T09:47:35.077Z,87.70
2022-08-17T09:51:03.288Z,89.20
2022-08-17T09:53:19.278Z,88.80
2022-08-17T09:56:00.155Z,88.60
2022-08-17T09:58:43.026Z,86.30
2022-08-17T10:01:16.204Z,86.60
2022-08-17T10:04:06.409Z,85.20
2022-08-17T10:07:07.630Z,87.50
2022-08-17T10:10:01.962Z,87.30
2022-08-17T10:12:46.991Z,87.30
2022-08-17T10:15:42.745Z,87.50
2022-08-17T10:18:14.630Z,87.90
2022-08-17T10:20:46.441Z,86.60
2022-08-17T10:23:46.988Z,85.70
2022-08-17T10:26:26.855Z,84.80
2022-08-17T10:29:46.189Z,85.90
2022-08-17T10:32:47.267Z,84.20
2022-08-17T10:35:46.178Z,84.40
2022-08-17T10:38:37.154Z,85.80
2022-08-17T10:41:30.992Z,84.40
2022-08-17T10:44:39.280Z,82.90
2022-08-17T10:47:16.036Z,82.40
2022-08-17T10:49:53.873Z,83.20
2022-08-17T10:52:26.302Z,82.20
2022-08-17T10:55:00.980Z,82.90
2022-08-17T10:57:42.424Z,82.40
2022-08-17T11:00:40.159Z,81.30
2022-08-17T11:03:24.783Z,81.20
2022-08-17T11:06:15.228Z,81.20
2022-08-17T11:09:02.654Z,81.10
2022-08-17T11:12:10.372Z,82.60
2022-08-17T11:15:03.704Z,82.60
2022-08-17T11:17:49.685Z,83.00
2022-08-17T11:20:38.024Z,82.30
2022-08-17T11:23:28.045Z,82.40
2022-08-17T11:26:08.256Z,82.00
2022-08-17T11:28:52.553Z,81.90
2022-08-17T11:31:38.487Z,81.60
2022-08-17T11:34:18.983Z,83.10
2022-08-17T11:37:32.936Z,82.90
2022-08-17T11:40:19.912Z,82.50
2022-08-17T11:43:13.534Z,81.30
2022-08-17T11:46:02.199Z,81.90
2022-08-17T11:49:04.842Z,81.50
2022-08-17T11:52:15.251Z,81.10
2022-08-17T11:54:48.727Z,81.30
2022-08-17T11:57:26.733Z,81.90
2022-08-17T12:00:10.316Z,81.90
2022-08-17T12:02:48.200Z,81.50
2022-08-17T12:05:22.908Z,82.30
2022-08-17T12:08:00.617Z,82.90
2022-08-17T12:10:36.004Z,83.50
2022-08-17T12:13:15.619Z,84.60
2022-08-17T12:15:50.737Z,84.00
2022-08-17T12:18:30.024Z,84.50
2022-08-17T12:21:16.206Z,84.20
2022-08-17T12:23:56.304Z,83.90
2022-08-17T12:26:34.940Z,82.70
2022-08-17T12:29:18.262Z,83.10
2022-08-17T12:32:13.003Z,82.50
2022-08-17T12:34:47.767Z,83.00
2022-08-17T12:37:24.809Z,82.90
2022-08-17T12:39:59.034Z,83.50
2022-08-17T12:42:37.746Z,83.90
2022-08-17T12:45:31.730Z,83.70
2022-08-17T12:49:05.864Z,83.60
2022-08-17T12:55:47.042Z,85.40
2022-08-17T12:58:43.864Z,85.30
2022-08-17T13:01:44.786Z,86.00
2022-08-17T13:05:00.296Z,86.40
2022-08-17T13:21:59.370Z,83.30
2022-08-17T13:24:39.480Z,83.50
2022-08-17T13:27:30.480Z,84.80
2022-08-17T13:30:30.782Z,84.20
2022-08-17T13:33:44.520Z,84.70
2022-08-17T13:36:42.294Z,86.30
2022-08-17T13:39:34.304Z,86.90
2022-08-17T13:42:52.023Z,86.40
2022-08-17T13:45:45.923Z,87.10
2022-08-17T13:48:48.796Z,87.40
2022-08-17T13:51:52.122Z,87.90
2022-08-17T13:54:55.862Z,86.70
2022-08-17T13:57:47.475Z,86.10
2022-08-17T14:00:52.455Z,86.00
2022-08-17T14:03:39.756Z,85.00
2022-08-17T14:06:22.139Z,86.10
2022-08-17T14:09:07.883Z,87.20
2022-08-17T14:11:40.007Z,87.20
2022-08-17T14:14:13.595Z,86.90
2022-08-17T14:16:45.607Z,85.00
2022-08-17T14:19:17.889Z,85.00
2022-08-17T14:21:50.298Z,85.70
2022-08-17T14:24:30.201Z,86.40
2022-08-17T14:27:05.073Z,86.70
2022-08-17T14:29:36.930Z,86.50
2022-08-17T14:32:35.912Z,85.30
2022-08-17T14:35:10.009Z,86.40
2022-08-17T14:37:42.900Z,86.70
2022-08-17T14:40:16.700Z,86.90
2022-08-17T14:42:49.847Z,87.00
2022-08-17T14:45:30.293Z,87.80
2022-08-17T14:48:07.717Z,87.80
2022-08-17T14:50:42.704Z,87.50
2022-08-17T14:53:16.238Z,87.50
2022-08-17T14:55:51.201Z,87.30
2022-08-17T14:58:23.573Z,88.90
2022-08-17T15:00:57.353Z,88.90
2022-08-17T15:03:30.416Z,88.30
2022-08-17T15:06:03.981Z,87.00
2022-08-17T15:08:35.962Z,88.60
2022-08-17T15:11:14.242Z,87.40
2022-08-17T15:13:52.813Z,89.00
2022-08-17T15:16:26.388Z,89.50
2022-08-17T15:18:58.398Z,88.60
2022-08-17T15:21:30.973Z,88.80
2022-08-17T15:24:06.294Z,88.30
2022-08-17T15:26:39.142Z,86.60
2022-08-17T15:29:11.236Z,85.40
2022-08-17T15:31:47.172Z,85.20
2022-08-17T15:34:19.728Z,83.70
2022-08-17T15:36:52.411Z,84.40
2022-08-17T15:39:24.394Z,83.80
2022-08-17T15:41:58.716Z,84.30
2022-08-17T15:44:34.802Z,84.60
2022-08-17T15:47:09.260Z,84.10
2022-08-17T15:49:42.648Z,85.00
2022-08-17T15:52:26.991Z,85.20
2022-08-17T15:55:01.107Z,86.60
2022-08-17T15:57:33.392Z,86.80
2022-08-17T16:00:08.047Z,84.80
2022-08-17T16:03:13.587Z,84.70
2022-08-17T16:05:36.504Z,84.20
2022-08-17T16:08:11.009Z,85.10
2022-08-17T16:10:43.096Z,85.40
2022-08-17T16:13:17.525Z,85.90
2022-08-17T16:15:57.138Z,85.70
2022-08-17T16:18:31.767Z,86.30
2022-08-17T16:21:25.933Z,86.30
2022-08-17T16:24:13.103Z,87.70
2022-08-17T16:26:46.771Z,88.50
2022-08-17T16:29:18.815Z,87.70
2022-08-17T16:31:51.261Z,86.90
2022-08-17T16:34:23.964Z,88.20
2022-08-17T16:36:56.652Z,89.50
2022-08-17T16:39:33.052Z,90.00
2022-08-17T16:42:23.442Z,90.20
2022-08-17T16:44:57.603Z,90.40
2022-08-17T16:47:29.667Z,90.50
2022-08-17T16:50:04.552Z,90.80
2022-08-17T16:52:37.560Z,91.00
2022-08-17T16:55:13.251Z,91.30
2022-08-17T16:57:47.498Z,91.80
2022-08-17T17:00:22.471Z,92.30
2022-08-17T17:02:54.739Z,92.70
2022-08-17T17:05:55.139Z,93.20
2022-08-17T17:08:58.812Z,93.40
2022-08-17T17:11:40.502Z,93.70
2022-08-17T17:14:21.237Z,94.00
2022-08-17T17:17:06.994Z,94.20
2022-08-17T17:19:41.345Z,94.40
2022-08-17T17:22:21.794Z,94.30
2022-08-17T17:25:27.824Z,94.30
2022-08-17T17:28:08.074Z,94.40
2022-08-17T17:30:43.225Z,94.50
2022-08-17T17:33:29.466Z,94.50
2022-08-17T17:36:50.769Z,94.60
2022-08-17T17:39:53.449Z,94.50
2022-08-17T17:42:31.380Z,94.50
2022-08-17T17:45:16.896Z,94.70
2022-08-17T17:47:48.849Z,95.20
2022-08-17T17:50:33.059Z,96.10
2022-08-17T17:53:15.332Z,96.10
2022-08-17T17:56:34.289Z,96.80
2022-08-17T17:59:18.945Z,97.70
2022-08-17T18:02:12.577Z,99.90
2022-08-17T18:04:53.624Z,99.90
2022-08-17T18:07:29.936Z,99.90
2022-08-17T18:10:29.472Z,99.90
2022-08-17T18:13:21.197Z,99.90
2022-08-17T18:16:00.812Z,99.90
2022-08-17T18:18:39.979Z,99.90
2022-08-17T18:21:16.661Z,99.90
2022-08-17T18:23:56.816Z,99.90
2022-08-17T18:26:34.718Z,99.90
2022-08-17T18:29:27.586Z,99.90
2022-08-17T18:32:13.631Z,99.90
2022-08-17T18:34:48.899Z,99.90
2022-08-17T18:37:35.207Z,99.90
2022-08-17T18:40:16.650Z,99.90
2022-08-17T18:43:00.008Z,99.90
2022-08-17T18:45:51.702Z,99.90
2022-08-17T18:48:53.524Z,99.90
2022-08-17T18:51:42.031Z,99.90
2022-08-17T18:54:17.858Z,99.90
2022-08-17T18:56:57.860Z,99.90
2022-08-17T18:59:49.988Z,99.90
2022-08-17T19:02:43.790Z,99.90
2022-08-17T19:05:34.991Z,99.90
2022-08-17T19:08:25.810Z,99.90
2022-08-17T19:11:16.539Z,99.90
2022-08-17T19:14:01.041Z,99.90
2022-08-17T19:16:35.950Z,99.90
2022-08-17T19:19:14.407Z,99.90
2022-08-17T19:22:12.795Z,99.90
2022-08-17T19:24:56.236Z,99.90
2022-08-17T19:27:49.250Z,99.90
2022-08-17T19:30:22.385Z,99.90
2022-08-17T19:32:57.099Z,99.90
2022-08-17T19:35:42.120Z,99.90
2022-08-17T19:38:42.622Z,99.90
2022-08-17T19:41:20.734Z,99.90
2022-08-17T19:44:12.192Z,99.90
2022-08-17T19:47:07.986Z,99.90
2022-08-17T19:50:10.805Z,99.90
2022-08-17T19:53:03.891Z,99.90
2022-08-17T19:55:59.700Z,99.90
2022-08-17T19:58:39.860Z,99.90
2022-08-17T20:01:18.943Z,99.90
2022-08-17T20:04:05.660Z,99.90
2022-08-17T20:06:40.968Z,99.90
2022-08-17T20:09:25.179Z,99.90
2022-08-17T20:12:10.103Z,99.90
2022-08-17T20:14:53.904Z,99.90
2022-08-17T20:17:35.069Z,99.90
2022-08-17T20:20:19.873Z,99.90
2022-08-17T20:23:10.512Z,99.90
2022-08-17T20:26:17.181Z,99.90
2022-08-17T20:29:09.509Z,99.90
2022-08-17T20:31:55.847Z,99.90
2022-08-17T20:34:35.000Z,99.90
2022-08-17T20:37:14.838Z,99.90
2022-08-17T20:40:08.981Z,99.90
2022-08-17T20:42:40.964Z,99.90
2022-08-17T20:45:22.001Z,99.90
2022-08-17T20:48:27.249Z,99.90
2022-08-17T20:50:59.111Z,99.90
2022-08-17T20:54:17.416Z,99.90
2022-08-17T20:56:51.951Z,99.90
2022-08-17T20:59:28.489Z,99.90
2022-08-17T21:02:08.957Z,99.90
2022-08-17T21:04:54.454Z,99.90
2022-08-17T21:07:42.650Z,99.90
2022-08-17T21:10:26.158Z,99.90
2022-08-17T21:13:15.939Z,99.90
2022-08-17T21:16:03.087Z,99.90
2022-08-17T21:18:47.562Z,99.90
2022-08-17T21:21:41.571Z,99.90
2022-08-17T21:24:35.101Z,99.90
2022-08-17T21:27:34.764Z,99.90
2022-08-17T21:30:10.115Z,99.90
2022-08-17T21:32:44.253Z,99.90
2022-08-17T21:35:47.168Z,99.90
2022-08-17T21:38:23.514Z,99.90
2022-08-17T21:40:55.759Z,99.90
2022-08-17T21:43:32.415Z,99.90
2022-08-17T21:46:23.229Z,99.90
2022-08-17T21:48:57.321Z,99.90
2022-08-17T21:51:30.521Z,99.90
2022-08-17T21:54:14.205Z,99.90
2022-08-17T21:56:47.980Z,99.90
2022-08-17T21:59:19.833Z,99.90
2022-08-17T22:02:03.865Z,99.90
2022-08-17T22:04:39.249Z,99.90
2022-08-17T22:07:13.725Z,99.90
2022-08-17T22:09:48.375Z,99.90
2022-08-17T22:12:26.915Z,99.90
2022-08-17T22:15:01.541Z,99.90
2022-08-17T22:17:46.587Z,99.90
2022-08-17T22:20:20.573Z,99.90
2022-08-17T22:23:14.035Z,99.90
2022-08-17T22:26:09.755Z,99.90
2022-08-17T22:28:56.444Z,99.90
2022-08-17T22:31:54.859Z,99.90
2022-08-17T22:34:26.776Z,99.90
2022-08-17T22:37:28.834Z,99.90
2022-08-17T22:40:00.862Z,99.90
2022-08-17T22:42:35.879Z,99.90
2022-08-17T22:45:08.335Z,99.90
2022-08-17T22:47:43.059Z,99.90
2022-08-17T22:50:23.939Z,99.90
2022-08-17T22:53:18.842Z,99.90
2022-08-17T22:56:12.205Z,99.90
2022-08-17T22:59:13.249Z,99.90
2022-08-17T23:02:06.432Z,99.90
2022-08-17T23:04:47.821Z,99.90
2022-08-17T23:07:20.989Z,99.90
2022-08-17T23:09:53.428Z,99.90
2022-08-17T23:12:26.833Z,99.90
2022-08-17T23:15:02.226Z,99.90
2022-08-17T23:17:37.442Z,99.90
2022-08-17T23:20:12.601Z,99.90
2022-08-17T23:22:52.229Z,99.90
2022-08-17T23:25:29.548Z,99.90
2022-08-17T23:28:04.310Z,99.90
2022-08-17T23:30:40.193Z,99.90
2022-08-17T23:33:29.831Z,99.90
2022-08-17T23:36:01.953Z,99.90
2022-08-17T23:38:33.916Z,99.90
2022-08-17T23:41:11.920Z,99.90
2022-08-17T23:43:47.866Z,99.90
2022-08-17T23:46:22.403Z,99.90
2022-08-17T23:48:54.301Z,99.90
2022-08-17T23:51:38.200Z,99.90
2022-08-17T23:54:21.805Z,99.90
2022-08-17T23:56:53.832Z,99.90
2022-08-17T23:59:27.108Z,99.90
